sensor_id;sensor_type;location;lat;lon;timestamp;pressure;altitude;pressure_sealevel;temperature;humidity
15007;BME280;7599;50.748;13.142;2024-01-25T00:02:12;96127.56;;;9.92;66.90
15007;BME280;7599;50.748;13.142;2024-01-25T00:05:14;96138.81;;;9.94;67.04
15007;BME280;7599;50.748;13.142;2024-01-25T00:08:19;96124.72;;;9.89;66.94
15007;BME280;7599;50.748;13.142;2024-01-25T00:11:22;96108.91;;;9.87;66.90
15007;BME280;7599;50.748;13.142;2024-01-25T00:14:27;96110.47;;;9.88;67.18
15007;BME280;7599;50.748;13.142;2024-01-25T00:17:33;96107.19;;;9.91;67.04
15007;BME280;7599;50.748;13.142;2024-01-25T00:21:00;96084.88;;;9.82;66.99
15007;BME280;7599;50.748;13.142;2024-01-25T00:24:05;96095.47;;;9.87;66.94
15007;BME280;7599;50.748;13.142;2024-01-25T00:27:08;96092.19;;;9.90;67.21
15007;BME280;7599;50.748;13.142;2024-01-25T00:30:12;96090.44;;;9.86;67.29
15007;BME280;7599;50.748;13.142;2024-01-25T00:33:18;96077.31;;;9.84;67.17
15007;BME280;7599;50.748;13.142;2024-01-25T00:36:22;96106.28;;;9.96;67.00
15007;BME280;7599;50.748;13.142;2024-01-25T00:39:26;96110.84;;;9.95;67.48
15007;BME280;7599;50.748;13.142;2024-01-25T00:42:37;96106.41;;;9.91;67.32
15007;BME280;7599;50.748;13.142;2024-01-25T00:45:57;96093.97;;;9.95;67.31
15007;BME280;7599;50.748;13.142;2024-01-25T00:49:03;96105.50;;;9.95;67.29
15007;BME280;7599;50.748;13.142;2024-01-25T00:52:07;96102.44;;;9.88;66.93
15007;BME280;7599;50.748;13.142;2024-01-25T00:55:13;96096.25;;;9.88;66.89
15007;BME280;7599;50.748;13.142;2024-01-25T00:58:21;96092.19;;;9.90;66.92
15007;BME280;7599;50.748;13.142;2024-01-25T01:01:25;96096.78;;;9.90;67.23
15007;BME280;7599;50.748;13.142;2024-01-25T01:05:09;96106.72;;;9.89;67.03
15007;BME280;7599;50.748;13.142;2024-01-25T01:08:24;96106.72;;;9.89;66.78
15007;BME280;7599;50.748;13.142;2024-01-25T01:11:31;96114.97;;;9.93;66.91
15007;BME280;7599;50.748;13.142;2024-01-25T01:14:35;96116.81;;;9.92;67.17
15007;BME280;7599;50.748;13.142;2024-01-25T01:17:43;96114.16;;;9.92;67.08
15007;BME280;7599;50.748;13.142;2024-01-25T01:20:46;96124.28;;;9.95;67.19
15007;BME280;7599;50.748;13.142;2024-01-25T01:23:51;96120.81;;;9.95;66.96
15007;BME280;7599;50.748;13.142;2024-01-25T01:26:55;96128.38;;;9.93;67.11
15007;BME280;7599;50.748;13.142;2024-01-25T01:29:58;96118.53;;;9.88;67.40
15007;BME280;7599;50.748;13.142;2024-01-25T01:33:01;96130.75;;;9.94;67.15
15007;BME280;7599;50.748;13.142;2024-01-25T01:36:14;96134.81;;;9.92;66.88
15007;BME280;7599;50.748;13.142;2024-01-25T02:10:29;96148.06;;;9.88;66.95
15007;BME280;7599;50.748;13.142;2024-01-25T02:13:32;96133.97;;;9.82;67.23
15007;BME280;7599;50.748;13.142;2024-01-25T02:16:35;96142.22;;;9.86;67.04
15007;BME280;7599;50.748;13.142;2024-01-25T02:19:37;96157.72;;;9.89;67.37
15007;BME280;7599;50.748;13.142;2024-01-25T02:22:42;96151.56;;;9.89;66.78
15007;BME280;7599;50.748;13.142;2024-01-25T02:25:45;96158.50;;;9.90;66.83
15007;BME280;7599;50.748;13.142;2024-01-25T02:28:48;96152.03;;;9.91;66.73
15007;BME280;7599;50.748;13.142;2024-01-25T02:32:06;96161.41;;;9.93;66.84
15007;BME280;7599;50.748;13.142;2024-01-25T02:35:09;96158.31;;;9.86;67.08
15007;BME280;7599;50.748;13.142;2024-01-25T02:38:13;96142.03;;;9.82;67.29
15007;BME280;7599;50.748;13.142;2024-01-25T02:41:24;96175.88;;;9.92;67.40
15007;BME280;7599;50.748;13.142;2024-01-25T02:44:33;96174.81;;;9.93;66.96
15007;BME280;7599;50.748;13.142;2024-01-25T02:47:36;96158.50;;;9.90;67.08
15007;BME280;7599;50.748;13.142;2024-01-25T02:50:38;96173.22;;;9.92;67.01
15007;BME280;7599;50.748;13.142;2024-01-25T02:53:53;96174.03;;;9.93;67.15
15007;BME280;7599;50.748;13.142;2024-01-25T02:56:57;96183.94;;;9.92;67.26
15007;BME280;7599;50.748;13.142;2024-01-25T02:59:59;96193.09;;;9.91;67.17
15007;BME280;7599;50.748;13.142;2024-01-25T03:03:02;96185.47;;;9.85;67.25
15007;BME280;7599;50.748;13.142;2024-01-25T03:06:23;96191.63;;;9.85;67.10
15007;BME280;7599;50.748;13.142;2024-01-25T03:09:27;96194.13;;;9.81;67.68
15007;BME280;7599;50.748;13.142;2024-01-25T03:12:30;96197.59;;;9.82;67.39
15007;BME280;7599;50.748;13.142;2024-01-25T03:16:02;96204.16;;;9.90;67.36
15007;BME280;7599;50.748;13.142;2024-01-25T03:19:05;96189.84;;;9.80;67.04
15007;BME280;7599;50.748;13.142;2024-01-25T03:22:08;96193.53;;;9.85;67.10
15007;BME280;7599;50.748;13.142;2024-01-25T03:25:12;96187.47;;;9.79;67.09
15007;BME280;7599;50.748;13.142;2024-01-25T03:36:14;96192.75;;;9.84;67.43
15007;BME280;7599;50.748;13.142;2024-01-25T03:39:16;96196.34;;;9.79;67.10
15007;BME280;7599;50.748;13.142;2024-01-25T03:42:19;96210.31;;;9.90;67.09
15007;BME280;7599;50.748;13.142;2024-01-25T03:45:36;96200.69;;;9.89;67.33
15007;BME280;7599;50.748;13.142;2024-01-25T03:48:49;96189.53;;;9.82;67.32
15007;BME280;7599;50.748;13.142;2024-01-25T03:52:02;96197.78;;;9.86;67.11
15007;BME280;7599;50.748;13.142;2024-01-25T03:55:06;96200.78;;;9.84;67.38
15007;BME280;7599;50.748;13.142;2024-01-25T03:58:19;96196.03;;;9.81;67.43
15007;BME280;7599;50.748;13.142;2024-01-25T04:01:42;96220.38;;;9.85;67.04
15007;BME280;7599;50.748;13.142;2024-01-25T04:05:04;96215.59;;;9.81;67.41
15007;BME280;7599;50.748;13.142;2024-01-25T04:08:30;96205.66;;;9.82;67.07
15007;BME280;7599;50.748;13.142;2024-01-25T04:11:40;96220.25;;;9.90;67.14
15007;BME280;7599;50.748;13.142;2024-01-25T04:14:42;96225.91;;;9.88;66.95
15007;BME280;7599;50.748;13.142;2024-01-25T04:18:03;96219.28;;;9.86;67.19
15007;BME280;7599;50.748;13.142;2024-01-25T04:21:38;96215.28;;;9.83;67.20
15007;BME280;7599;50.748;13.142;2024-01-25T04:24:56;96243.81;;;9.93;67.34
15007;BME280;7599;50.748;13.142;2024-01-25T04:28:10;96216.91;;;9.84;67.11
15007;BME280;7599;50.748;13.142;2024-01-25T04:31:13;96224.03;;;9.89;67.27
15007;BME280;7599;50.748;13.142;2024-01-25T04:34:15;96218.28;;;9.81;67.03
15007;BME280;7599;50.748;13.142;2024-01-25T04:37:33;96237.16;;;9.90;67.31
15007;BME280;7599;50.748;13.142;2024-01-25T04:40:39;96238.63;;;9.96;66.90
15007;BME280;7599;50.748;13.142;2024-01-25T04:44:16;96217.19;;;9.82;67.29
15007;BME280;7599;50.748;13.142;2024-01-25T04:47:23;96239.53;;;9.92;67.13
15007;BME280;7599;50.748;13.142;2024-01-25T04:50:29;96224.03;;;9.89;67.22
15007;BME280;7599;50.748;13.142;2024-01-25T04:53:56;96254.44;;;9.98;67.03
15007;BME280;7599;50.748;13.142;2024-01-25T04:57:02;96254.06;;;9.91;67.09
15007;BME280;7599;50.748;13.142;2024-01-25T05:00:21;96254.56;;;9.93;67.10
15007;BME280;7599;50.748;13.142;2024-01-25T05:03:55;96266.56;;;9.95;67.06
15007;BME280;7599;50.748;13.142;2024-01-25T05:07:18;96258.13;;;9.88;66.93
15007;BME280;7599;50.748;13.142;2024-01-25T05:10:57;96270.56;;;9.98;66.84
15007;BME280;7599;50.748;13.142;2024-01-25T05:14:28;96274.81;;;9.99;67.12
15007;BME280;7599;50.748;13.142;2024-01-25T05:17:41;96274.63;;;9.95;67.00
15007;BME280;7599;50.748;13.142;2024-01-25T05:20:58;96265.91;;;9.90;67.12
15007;BME280;7599;50.748;13.142;2024-01-25T05:24:00;96274.16;;;9.93;66.95
15007;BME280;7599;50.748;13.142;2024-01-25T05:27:14;96278.31;;;9.99;66.90
15007;BME280;7599;50.748;13.142;2024-01-25T05:30:18;96283.38;;;10.01;67.34
15007;BME280;7599;50.748;13.142;2024-01-25T05:33:30;96266.09;;;9.93;67.06
15007;BME280;7599;50.748;13.142;2024-01-25T05:36:47;96272.94;;;9.99;67.27
15007;BME280;7599;50.748;13.142;2024-01-25T05:39:59;96280.69;;;10.01;67.15
15007;BME280;7599;50.748;13.142;2024-01-25T05:43:27;96276.84;;;9.93;67.31
15007;BME280;7599;50.748;13.142;2024-01-25T05:46:39;96300.28;;;10.01;67.29
15007;BME280;7599;50.748;13.142;2024-01-25T05:49:55;96285.97;;;9.92;67.07
15007;BME280;7599;50.748;13.142;2024-01-25T05:52:58;96302.97;;;10.01;67.22
15007;BME280;7599;50.748;13.142;2024-01-25T05:56:01;96304.47;;;9.94;67.06
15007;BME280;7599;50.748;13.142;2024-01-25T05:59:25;96314.78;;;10.00;67.22
15007;BME280;7599;50.748;13.142;2024-01-25T06:02:47;96316.69;;;10.00;66.92
15007;BME280;7599;50.748;13.142;2024-01-25T06:06:01;96301.00;;;9.93;67.14
15007;BME280;7599;50.748;13.142;2024-01-25T06:09:04;96306.38;;;9.93;67.31
15007;BME280;7599;50.748;13.142;2024-01-25T06:12:38;96326.53;;;9.91;67.22
15007;BME280;7599;50.748;13.142;2024-01-25T06:15:43;96340.66;;;9.96;67.12
15007;BME280;7599;50.748;13.142;2024-01-25T06:18:55;96324.75;;;9.86;67.06
15007;BME280;7599;50.748;13.142;2024-01-25T06:22:00;96338.28;;;9.95;67.51
15007;BME280;7599;50.748;13.142;2024-01-25T06:25:14;96338.47;;;9.98;67.66
15007;BME280;7599;50.748;13.142;2024-01-25T06:28:38;96352.38;;;10.00;67.48
15007;BME280;7599;50.748;13.142;2024-01-25T06:32:01;96342.16;;;9.89;67.44
15007;BME280;7599;50.748;13.142;2024-01-25T06:35:17;96355.50;;;9.94;67.16
15007;BME280;7599;50.748;13.142;2024-01-25T06:38:20;96355.50;;;9.94;67.50
15007;BME280;7599;50.748;13.142;2024-01-25T06:41:23;96361.34;;;9.96;67.30
15007;BME280;7599;50.748;13.142;2024-01-25T06:44:27;96370.19;;;9.96;67.14
15007;BME280;7599;50.748;13.142;2024-01-25T06:47:40;96372.59;;;9.98;67.01
15007;BME280;7599;50.748;13.142;2024-01-25T06:50:42;96376.06;;;9.98;66.99
15007;BME280;7599;50.748;13.142;2024-01-25T06:53:58;96388.50;;;9.94;67.20
15007;BME280;7599;50.748;13.142;2024-01-25T06:57:01;96389.50;;;9.98;66.96
15007;BME280;7599;50.748;13.142;2024-01-25T07:00:19;96398.13;;;9.95;67.06
15007;BME280;7599;50.748;13.142;2024-01-25T07:03:24;96400.41;;;9.88;67.12
15007;BME280;7599;50.748;13.142;2024-01-25T07:06:47;96423.50;;;10.03;67.04
15007;BME280;7599;50.748;13.142;2024-01-25T07:09:50;96406.50;;;9.94;67.00
15007;BME280;7599;50.748;13.142;2024-01-25T07:13:08;96422.31;;;9.95;67.21
15007;BME280;7599;50.748;13.142;2024-01-25T07:16:47;96418.81;;;9.95;67.53
15007;BME280;7599;50.748;13.142;2024-01-25T07:23:22;96393.66;;;9.91;67.44
15007;BME280;7599;50.748;13.142;2024-01-25T07:26:38;96434.03;;;9.99;67.56
15007;BME280;7599;50.748;13.142;2024-01-25T07:29:50;96441.00;;;10.00;67.75
15007;BME280;7599;50.748;13.142;2024-01-25T07:33:07;96413.81;;;9.88;67.40
15007;BME280;7599;50.748;13.142;2024-01-25T07:36:10;96427.38;;;9.97;67.43
15007;BME280;7599;50.748;13.142;2024-01-25T07:39:53;96415.94;;;9.91;67.38
15007;BME280;7599;50.748;13.142;2024-01-25T07:42:59;96434.34;;;9.98;67.51
15007;BME280;7599;50.748;13.142;2024-01-25T07:46:54;96417.63;;;10.01;67.56
15007;BME280;7599;50.748;13.142;2024-01-25T07:50:02;96415.66;;;9.93;67.17
15007;BME280;7599;50.748;13.142;2024-01-25T07:53:53;96421.13;;;10.01;67.21
15007;BME280;7599;50.748;13.142;2024-01-25T07:56:59;96419.03;;;9.98;67.48
15007;BME280;7599;50.748;13.142;2024-01-25T08:00:12;96421.50;;;9.95;67.21
15007;BME280;7599;50.748;13.142;2024-01-25T08:03:18;96422.59;;;9.94;67.70
15007;BME280;7599;50.748;13.142;2024-01-25T08:06:42;96424.50;;;9.93;67.36
15007;BME280;7599;50.748;13.142;2024-01-25T08:09:51;96429.19;;;10.01;67.47
15007;BME280;7599;50.748;13.142;2024-01-25T08:13:03;96434.34;;;9.98;67.36
15007;BME280;7599;50.748;13.142;2024-01-25T08:16:11;96443.69;;;10.00;67.62
15007;BME280;7599;50.748;13.142;2024-01-25T08:19:34;96432.16;;;10.00;67.73
15007;BME280;7599;50.748;13.142;2024-01-25T08:22:43;96435.63;;;10.00;67.22
15007;BME280;7599;50.748;13.142;2024-01-25T08:26:01;96438.03;;;10.02;67.17
15007;BME280;7599;50.748;13.142;2024-01-25T08:29:23;96419.31;;;9.97;67.44
15007;BME280;7599;50.748;13.142;2024-01-25T08:32:28;96429.78;;;9.98;67.51
15007;BME280;7599;50.748;13.142;2024-01-25T08:35:37;96429.19;;;10.01;67.17
15007;BME280;7599;50.748;13.142;2024-01-25T08:38:57;96426.09;;;9.94;67.65
15007;BME280;7599;50.748;13.142;2024-01-25T08:42:01;96427.56;;;10.00;67.70
15007;BME280;7599;50.748;13.142;2024-01-25T08:45:32;96429.19;;;10.01;67.82
15007;BME280;7599;50.748;13.142;2024-01-25T08:48:56;96414.03;;;9.92;67.48
15007;BME280;7599;50.748;13.142;2024-01-25T08:52:00;96416.44;;;9.93;67.44
15007;BME280;7599;50.748;13.142;2024-01-25T08:55:07;96429.19;;;10.01;67.60
15007;BME280;7599;50.748;13.142;2024-01-25T08:58:37;96429.97;;;10.02;67.09
15007;BME280;7599;50.748;13.142;2024-01-25T09:01:54;96431.56;;;10.03;67.18
15007;BME280;7599;50.748;13.142;2024-01-25T09:04:57;96427.88;;;9.99;67.48
15007;BME280;7599;50.748;13.142;2024-01-25T09:08:04;96430.78;;;10.02;67.72
15007;BME280;7599;50.748;13.142;2024-01-25T09:11:16;96435.84;;;10.04;67.13
15007;BME280;7599;50.748;13.142;2024-01-25T09:14:32;96432.72;;;9.97;67.55
15007;BME280;7599;50.748;13.142;2024-01-25T09:17:37;96427.38;;;9.97;67.27
15007;BME280;7599;50.748;13.142;2024-01-25T09:20:59;96451.16;;;10.03;67.20
15007;BME280;7599;50.748;13.142;2024-01-25T09:24:03;96437.03;;;9.98;67.32
15007;BME280;7599;50.748;13.142;2024-01-25T09:27:05;96454.94;;;10.02;67.44
15007;BME280;7599;50.748;13.142;2024-01-25T09:30:24;96458.50;;;9.98;67.87
15007;BME280;7599;50.748;13.142;2024-01-25T09:33:29;96467.38;;;9.98;67.36
15007;BME280;7599;50.748;13.142;2024-01-25T09:36:32;96458.72;;;10.01;67.82
15007;BME280;7599;50.748;13.142;2024-01-25T09:39:47;96472.63;;;10.03;67.39
15007;BME280;7599;50.748;13.142;2024-01-25T09:43:00;96474.53;;;10.03;67.79
15007;BME280;7599;50.748;13.142;2024-01-25T09:46:14;96462.88;;;9.94;67.67
15007;BME280;7599;50.748;13.142;2024-01-25T09:49:24;96467.06;;;10.00;67.40
15007;BME280;7599;50.748;13.142;2024-01-25T09:52:29;96464.28;;;10.05;67.80
15007;BME280;7599;50.748;13.142;2024-01-25T09:55:43;96478.44;;;10.11;67.31
15007;BME280;7599;50.748;13.142;2024-01-25T09:59:03;96484.69;;;10.06;67.62
15007;BME280;7599;50.748;13.142;2024-01-25T10:02:20;96480.78;;;9.98;67.21
15007;BME280;7599;50.748;13.142;2024-01-25T10:05:43;96491.13;;;10.05;67.27
15007;BME280;7599;50.748;13.142;2024-01-25T10:09:04;96481.00;;;10.02;66.96
15007;BME280;7599;50.748;13.142;2024-01-25T10:12:18;96478.91;;;9.99;67.26
15007;BME280;7599;50.748;13.142;2024-01-25T10:15:26;96510.44;;;10.07;67.51
15007;BME280;7599;50.748;13.142;2024-01-25T10:18:43;96507.84;;;10.02;67.30
15007;BME280;7599;50.748;13.142;2024-01-25T10:22:05;96512.13;;;10.03;66.98
15007;BME280;7599;50.748;13.142;2024-01-25T10:25:12;96507.34;;;10.00;67.00
15007;BME280;7599;50.748;13.142;2024-01-25T10:28:15;96518.28;;;10.03;66.96
15007;BME280;7599;50.748;13.142;2024-01-25T10:31:18;96515.50;;;10.08;67.10
15007;BME280;7599;50.748;13.142;2024-01-25T10:34:34;96533.50;;;10.08;67.11
15007;BME280;7599;50.748;13.142;2024-01-25T10:37:42;96510.00;;;10.00;67.30
15007;BME280;7599;50.748;13.142;2024-01-25T10:40:49;96505.44;;;10.00;67.12
15007;BME280;7599;50.748;13.142;2024-01-25T10:44:12;96524.34;;;10.09;66.92
15007;BME280;7599;50.748;13.142;2024-01-25T10:47:15;96510.13;;;10.08;67.50
15007;BME280;7599;50.748;13.142;2024-01-25T10:51:04;96507.06;;;10.01;66.90
15007;BME280;7599;50.748;13.142;2024-01-25T10:54:12;96496.81;;;10.03;67.45
15007;BME280;7599;50.748;13.142;2024-01-25T10:57:16;96505.66;;;10.04;67.15
15007;BME280;7599;50.748;13.142;2024-01-25T11:00:21;96505.34;;;10.05;67.35
15007;BME280;7599;50.748;13.142;2024-01-25T11:03:34;96506.16;;;10.06;67.24
15007;BME280;7599;50.748;13.142;2024-01-25T11:06:38;96493.91;;;10.00;66.83
15007;BME280;7599;50.748;13.142;2024-01-25T11:09:51;96492.81;;;10.01;66.71
15007;BME280;7599;50.748;13.142;2024-01-25T11:13:01;96498.59;;;10.08;66.81
15007;BME280;7599;50.748;13.142;2024-01-25T11:16:15;96501.28;;;10.08;66.66
15007;BME280;7599;50.748;13.142;2024-01-25T11:19:20;96502.97;;;10.04;67.39
15007;BME280;7599;50.748;13.142;2024-01-25T11:22:54;96498.91;;;10.06;67.16
15007;BME280;7599;50.748;13.142;2024-01-25T11:26:17;96509.34;;;10.08;67.18
15007;BME280;7599;50.748;13.142;2024-01-25T11:29:25;96501.88;;;10.05;66.84
15007;BME280;7599;50.748;13.142;2024-01-25T11:32:28;96508.34;;;10.04;66.99
15007;BME280;7599;50.748;13.142;2024-01-25T11:35:34;96501.06;;;10.04;66.85
15007;BME280;7599;50.748;13.142;2024-01-25T11:38:58;96485.84;;;10.00;66.91
15007;BME280;7599;50.748;13.142;2024-01-25T11:42:07;96505.28;;;10.11;66.91
15007;BME280;7599;50.748;13.142;2024-01-25T11:45:29;96493.03;;;10.04;67.07
15007;BME280;7599;50.748;13.142;2024-01-25T11:48:43;96485.56;;;10.01;67.06
15007;BME280;7599;50.748;13.142;2024-01-25T11:51:53;96502.06;;;10.08;66.89
15007;BME280;7599;50.748;13.142;2024-01-25T11:54:57;96510.66;;;10.11;67.14
15007;BME280;7599;50.748;13.142;2024-01-25T11:58:15;96494.91;;;10.04;66.78
15007;BME280;7599;50.748;13.142;2024-01-25T12:02:01;96516.50;;;10.13;66.87
15007;BME280;7599;50.748;13.142;2024-01-25T12:05:27;96515.13;;;10.15;67.12
15007;BME280;7599;50.748;13.142;2024-01-25T12:08:44;96489.22;;;10.05;67.16
15007;BME280;7599;50.748;13.142;2024-01-25T12:12:00;96491.75;;;10.02;67.31
15007;BME280;7599;50.748;13.142;2024-01-25T12:15:33;96489.53;;;10.04;66.96
15007;BME280;7599;50.748;13.142;2024-01-25T12:18:36;96492.22;;;10.04;66.95
15007;BME280;7599;50.748;13.142;2024-01-25T12:22:23;96500.28;;;10.04;67.13
15007;BME280;7599;50.748;13.142;2024-01-25T12:25:30;96498.28;;;10.10;67.21
15007;BME280;7599;50.748;13.142;2024-01-25T12:28:47;96503.59;;;10.15;66.78
15007;BME280;7599;50.748;13.142;2024-01-25T12:32:05;96495.13;;;10.07;67.03
15007;BME280;7599;50.748;13.142;2024-01-25T12:38:48;96493.75;;;10.10;66.85
15007;BME280;7599;50.748;13.142;2024-01-25T12:41:51;96490.75;;;10.12;66.98
15007;BME280;7599;50.748;13.142;2024-01-25T12:44:58;96496.13;;;10.12;66.88
15007;BME280;7599;50.748;13.142;2024-01-25T12:48:03;96489.16;;;10.11;66.81
15007;BME280;7599;50.748;13.142;2024-01-25T12:51:09;96477.69;;;10.05;67.04
15007;BME280;7599;50.748;13.142;2024-01-25T12:54:12;96494.44;;;10.16;66.72
15007;BME280;7599;50.748;13.142;2024-01-25T12:57:17;96484.50;;;10.16;67.02
15007;BME280;7599;50.748;13.142;2024-01-25T13:00:21;96490.75;;;10.12;66.92
15007;BME280;7599;50.748;13.142;2024-01-25T13:03:25;96481.09;;;10.11;66.90
15007;BME280;7599;50.748;13.142;2024-01-25T13:06:30;96489.06;;;10.16;66.77
15007;BME280;7599;50.748;13.142;2024-01-25T13:09:36;96484.50;;;10.16;66.70
15007;BME280;7599;50.748;13.142;2024-01-25T13:12:39;96486.66;;;10.14;66.81
15007;BME280;7599;50.748;13.142;2024-01-25T13:15:44;96475.22;;;10.08;66.47
15007;BME280;7599;50.748;13.142;2024-01-25T13:18:50;96484.38;;;10.07;66.85
15007;BME280;7599;50.748;13.142;2024-01-25T13:21:54;96501.41;;;10.17;66.70
15007;BME280;7599;50.748;13.142;2024-01-25T13:24:59;96498.72;;;10.17;66.82
15007;BME280;7599;50.748;13.142;2024-01-25T13:28:03;96491.53;;;10.12;66.59
15007;BME280;7599;50.748;13.142;2024-01-25T13:31:06;96498.13;;;10.20;66.57
15007;BME280;7599;50.748;13.142;2024-01-25T13:34:11;96494.94;;;10.18;66.99
15007;BME280;7599;50.748;13.142;2024-01-25T13:37:28;96491.16;;;10.19;66.89
15007;BME280;7599;50.748;13.142;2024-01-25T13:40:44;96483.91;;;10.19;66.69
15007;BME280;7599;50.748;13.142;2024-01-25T13:43:50;96486.88;;;10.18;66.97
15007;BME280;7599;50.748;13.142;2024-01-25T13:47:00;96488.47;;;10.19;66.61
15007;BME280;7599;50.748;13.142;2024-01-25T13:50:11;96478.03;;;10.17;66.89
15007;BME280;7599;50.748;13.142;2024-01-25T13:53:14;96479.69;;;10.13;66.62
15007;BME280;7599;50.748;13.142;2024-01-25T13:56:18;96465.16;;;10.14;66.44
15007;BME280;7599;50.748;13.142;2024-01-25T13:59:22;96473.06;;;10.11;66.36
15007;BME280;7599;50.748;13.142;2024-01-25T14:02:45;96505.66;;;10.18;66.85
15007;BME280;7599;50.748;13.142;2024-01-25T14:05:54;96492.25;;;10.18;66.44
15007;BME280;7599;50.748;13.142;2024-01-25T14:09:07;96494.13;;;10.17;66.92
15007;BME280;7599;50.748;13.142;2024-01-25T14:12:14;96489.06;;;10.16;66.78
15007;BME280;7599;50.748;13.142;2024-01-25T14:15:21;96495.81;;;10.13;66.63
15007;BME280;7599;50.748;13.142;2024-01-25T14:18:26;96494.66;;;10.19;66.81
15007;BME280;7599;50.748;13.142;2024-01-25T14:21:34;96485.88;;;10.14;66.59
15007;BME280;7599;50.748;13.142;2024-01-25T14:24:37;96497.13;;;10.16;66.96
15007;BME280;7599;50.748;13.142;2024-01-25T14:27:42;96495.22;;;10.16;66.76
15007;BME280;7599;50.748;13.142;2024-01-25T14:30:45;96501.41;;;10.17;66.49
15007;BME280;7599;50.748;13.142;2024-01-25T14:33:47;96499.22;;;10.19;66.45
15007;BME280;7599;50.748;13.142;2024-01-25T14:37:07;96499.50;;;10.17;66.22
15007;BME280;7599;50.748;13.142;2024-01-25T14:40:12;96487.28;;;10.11;66.36
15007;BME280;7599;50.748;13.142;2024-01-25T14:43:47;96490.66;;;10.17;66.92
15007;BME280;7599;50.748;13.142;2024-01-25T14:46:52;96480.81;;;10.12;66.67
15007;BME280;7599;50.748;13.142;2024-01-25T14:49:56;96480.00;;;10.12;66.62
15007;BME280;7599;50.748;13.142;2024-01-25T14:53:08;96484.28;;;10.13;66.43
15007;BME280;7599;50.748;13.142;2024-01-25T14:56:10;96499.50;;;10.17;66.91
15007;BME280;7599;50.748;13.142;2024-01-25T14:59:18;96490.75;;;10.12;66.88
15007;BME280;7599;50.748;13.142;2024-01-25T15:02:24;96501.50;;;10.12;66.83
15007;BME280;7599;50.748;13.142;2024-01-25T15:05:39;96514.25;;;10.20;66.55
15007;BME280;7599;50.748;13.142;2024-01-25T15:08:48;96499.91;;;10.11;66.70
15007;BME280;7599;50.748;13.142;2024-01-25T15:11:52;96494.13;;;10.03;66.98
15007;BME280;7599;50.748;13.142;2024-01-25T15:15:03;96512.44;;;10.15;66.86
15007;BME280;7599;50.748;13.142;2024-01-25T15:18:06;96511.66;;;10.15;66.88
15007;BME280;7599;50.748;13.142;2024-01-25T15:21:09;96508.97;;;10.15;66.52
15007;BME280;7599;50.748;13.142;2024-01-25T15:24:15;96512.13;;;10.17;67.07
15007;BME280;7599;50.748;13.142;2024-01-25T15:27:22;96523.88;;;10.21;66.75
15007;BME280;7599;50.748;13.142;2024-01-25T15:30:29;96514.03;;;10.16;66.85
15007;BME280;7599;50.748;13.142;2024-01-25T15:33:47;96506.28;;;10.15;66.58
15007;BME280;7599;50.748;13.142;2024-01-25T15:36:57;96518.22;;;10.22;66.36
15007;BME280;7599;50.748;13.142;2024-01-25T15:40:04;96519.41;;;10.16;66.83
15007;BME280;7599;50.748;13.142;2024-01-25T15:43:25;96517.81;;;10.15;66.98
15007;BME280;7599;50.748;13.142;2024-01-25T15:46:29;96518.09;;;10.14;66.98
15007;BME280;7599;50.748;13.142;2024-01-25T15:49:32;96533.53;;;10.22;67.04
15007;BME280;7599;50.748;13.142;2024-01-25T15:52:35;96524.25;;;10.14;66.94
15007;BME280;7599;50.748;13.142;2024-01-25T15:55:39;96543.19;;;10.23;66.56
15007;BME280;7599;50.748;13.142;2024-01-25T15:58:44;96527.84;;;10.10;66.50
15007;BME280;7599;50.748;13.142;2024-01-25T16:01:47;96529.56;;;10.19;66.75
15007;BME280;7599;50.748;13.142;2024-01-25T16:04:53;96541.31;;;10.23;66.76
15007;BME280;7599;50.748;13.142;2024-01-25T16:07:56;96554.16;;;10.26;66.40
15007;BME280;7599;50.748;13.142;2024-01-25T16:11:04;96547.56;;;10.19;66.54
15007;BME280;7599;50.748;13.142;2024-01-25T16:14:07;96547.47;;;10.24;66.71
15007;BME280;7599;50.748;13.142;2024-01-25T16:17:13;96548.66;;;10.18;66.44
15007;BME280;7599;50.748;13.142;2024-01-25T16:20:42;96544.59;;;10.20;66.54
15007;BME280;7599;50.748;13.142;2024-01-25T16:23:46;96563.00;;;10.27;66.93
15007;BME280;7599;50.748;13.142;2024-01-25T16:27:05;96564.19;;;10.21;66.52
15007;BME280;7599;50.748;13.142;2024-01-25T16:34:28;96575.16;;;10.24;66.81
15007;BME280;7599;50.748;13.142;2024-01-25T16:37:32;96577.31;;;10.22;66.77
15007;BME280;7599;50.748;13.142;2024-01-25T16:40:35;96592.56;;;10.27;66.73
15007;BME280;7599;50.748;13.142;2024-01-25T16:43:49;96576.59;;;10.17;66.40
15007;BME280;7599;50.748;13.142;2024-01-25T16:46:52;96577.13;;;10.19;66.74
15007;BME280;7599;50.748;13.142;2024-01-25T16:49:55;96595.56;;;10.25;66.90
15007;BME280;7599;50.748;13.142;2024-01-25T16:53:15;96599.59;;;10.23;66.85
15007;BME280;7599;50.748;13.142;2024-01-25T16:56:18;96598.25;;;10.25;66.84
15007;BME280;7599;50.748;13.142;2024-01-25T16:59:25;96603.31;;;10.27;66.86
15007;BME280;7599;50.748;13.142;2024-01-25T17:02:29;96586.16;;;10.23;66.93
15007;BME280;7599;50.748;13.142;2024-01-25T17:05:40;96582.41;;;10.24;66.55
15007;BME280;7599;50.748;13.142;2024-01-25T17:08:58;96581.81;;;10.27;66.49
15007;BME280;7599;50.748;13.142;2024-01-25T17:12:07;96572.69;;;10.28;66.30
15007;BME280;7599;50.748;13.142;2024-01-25T17:15:22;96578.09;;;10.23;66.52
15007;BME280;7599;50.748;13.142;2024-01-25T17:18:26;96580.78;;;10.23;66.60
15007;BME280;7599;50.748;13.142;2024-01-25T17:21:30;96583.94;;;10.30;66.46
15007;BME280;7599;50.748;13.142;2024-01-25T17:24:34;96566.56;;;10.22;66.67
15007;BME280;7599;50.748;13.142;2024-01-25T17:27:42;96561.75;;;10.24;66.61
15007;BME280;7599;50.748;13.142;2024-01-25T17:30:53;96561.28;;;10.17;66.83
15007;BME280;7599;50.748;13.142;2024-01-25T17:33:58;96562.81;;;10.23;66.58
15007;BME280;7599;50.748;13.142;2024-01-25T17:37:18;96551.34;;;10.18;66.66
15007;BME280;7599;50.748;13.142;2024-01-25T17:40:21;96555.91;;;10.17;66.40
15007;BME280;7599;50.748;13.142;2024-01-25T17:43:25;96557.31;;;10.15;66.77
15007;BME280;7599;50.748;13.142;2024-01-25T17:46:29;96576.75;;;10.25;66.27
15007;BME280;7599;50.748;13.142;2024-01-25T17:49:33;96562.38;;;10.16;66.14